createdAt,value
2024-02-24T00:01:59.428Z,27.38
2024-02-24T00:04:27.973Z,33.60
2024-02-24T00:06:56.817Z,32.78
2024-02-24T00:09:25.514Z,24.33
2024-02-24T00:11:54.356Z,24.85
2024-02-24T00:14:22.728Z,22.80
2024-02-24T00:16:51.804Z,22.95
2024-02-24T00:19:20.169Z,23.67
2024-02-24T00:21:48.804Z,21.30
2024-02-24T00:24:17.374Z,21.48
2024-02-24T00:26:46.198Z,22.20
2024-02-24T00:29:14.620Z,21.63
2024-02-24T00:31:43.269Z,18.92
2024-02-24T00:34:11.603Z,20.15
2024-02-24T00:36:40.199Z,21.42
2024-02-24T00:39:08.726Z,21.38
2024-02-24T00:41:37.575Z,22.67
2024-02-24T00:44:07.807Z,20.85
2024-02-24T00:46:37.205Z,19.70
2024-02-24T00:49:05.547Z,20.38
2024-02-24T00:51:34.323Z,17.75
2024-02-24T00:54:02.667Z,17.00
2024-02-24T00:56:31.508Z,19.75
2024-02-24T00:59:00.083Z,16.98
2024-02-24T01:01:29.919Z,17.48
2024-02-24T01:04:01.082Z,17.33
2024-02-24T01:06:29.981Z,13.65
2024-02-24T01:09:48.488Z,16.27
2024-02-24T01:12:17.205Z,18.00
2024-02-24T01:14:45.854Z,19.30
2024-02-24T01:17:15.098Z,18.30
2024-02-24T01:19:43.413Z,20.02
2024-02-24T01:22:14.070Z,23.73
2024-02-24T01:24:42.373Z,20.80
2024-02-24T01:27:11.157Z,19.60
2024-02-24T01:29:39.807Z,22.92
2024-02-24T01:32:08.623Z,17.00
2024-02-24T01:34:40.871Z,20.10
2024-02-24T01:37:34.899Z,18.13
2024-02-24T01:40:07.777Z,18.92
2024-02-24T01:42:36.486Z,16.55
2024-02-24T01:45:05.330Z,14.93
2024-02-24T01:47:34.654Z,13.07
2024-02-24T01:50:03.937Z,12.43
2024-02-24T01:52:57.852Z,10.07
2024-02-24T01:55:26.366Z,13.27
2024-02-24T01:57:55.851Z,13.93
2024-02-24T02:00:37.666Z,12.68
2024-02-24T02:03:34.380Z,9.88
2024-02-24T02:06:07.852Z,11.88
2024-02-24T02:08:36.560Z,11.40
2024-02-24T02:11:05.161Z,9.75
2024-02-24T02:13:33.803Z,8.90
2024-02-24T02:16:03.037Z,9.38
2024-02-24T02:18:33.756Z,10.65
2024-02-24T02:21:05.283Z,9.88
2024-02-24T02:23:34.103Z,9.10
2024-02-24T02:26:04.303Z,8.57
2024-02-24T02:28:32.983Z,10.85
2024-02-24T02:31:01.981Z,11.25
2024-02-24T02:33:30.599Z,10.68
2024-02-24T02:35:59.026Z,10.35
2024-02-24T02:38:27.836Z,13.13
2024-02-24T02:40:56.324Z,10.73
2024-02-24T02:43:25.269Z,14.60
2024-02-24T02:45:53.754Z,11.20
2024-02-24T02:48:22.598Z,9.68
2024-02-24T02:50:51.080Z,9.57
2024-02-24T02:53:20.332Z,8.65
2024-02-24T02:55:48.618Z,7.88
2024-02-24T03:01:02.276Z,11.10
2024-02-24T03:03:31.002Z,7.93
2024-02-24T03:05:59.574Z,8.50
2024-02-24T03:08:28.529Z,8.73
2024-02-24T03:10:56.948Z,10.50
2024-02-24T03:13:25.814Z,8.15
2024-02-24T03:15:54.222Z,7.80
2024-02-24T03:20:51.405Z,7.70
2024-02-24T03:23:23.735Z,36.10
2024-02-24T03:29:02.245Z,7.22
2024-02-24T03:31:31.443Z,10.45
2024-02-24T03:34:00.199Z,7.70
2024-02-24T03:36:28.696Z,5.18
2024-02-24T03:38:57.452Z,6.30
2024-02-24T03:41:27.216Z,6.20
2024-02-24T03:43:55.884Z,6.97
2024-02-24T03:46:24.295Z,5.55
2024-02-24T03:48:52.896Z,6.28
2024-02-24T03:51:21.566Z,8.00
2024-02-24T03:53:50.268Z,6.18
2024-02-24T03:56:21.772Z,7.35
2024-02-24T03:58:50.590Z,6.85
2024-02-24T04:01:19.546Z,8.55
2024-02-24T04:03:48.146Z,7.43
2024-02-24T04:06:17.243Z,9.10
2024-02-24T04:08:49.175Z,9.75
2024-02-24T04:11:17.710Z,10.45
2024-02-24T04:13:46.457Z,10.32
2024-02-24T04:16:14.850Z,22.48
2024-02-24T04:18:43.655Z,10.38
2024-02-24T04:21:12.075Z,9.85
2024-02-24T04:23:40.663Z,11.68
2024-02-24T04:26:09.069Z,11.30
2024-02-24T04:28:37.830Z,10.77
2024-02-24T04:31:06.117Z,37.10
2024-02-24T04:33:34.826Z,21.33
2024-02-24T04:36:05.209Z,12.82
2024-02-24T04:38:34.962Z,12.23
2024-02-24T04:41:03.453Z,12.85
2024-02-24T04:43:34.828Z,16.30
2024-02-24T04:46:05.359Z,16.05
2024-02-24T04:48:35.239Z,19.67
2024-02-24T04:51:03.975Z,18.73
2024-02-24T04:53:32.957Z,16.92
2024-02-24T04:56:01.263Z,15.98
2024-02-24T04:58:29.954Z,16.70
2024-02-24T05:00:58.457Z,14.98
2024-02-24T05:03:27.142Z,16.15
2024-02-24T05:05:55.823Z,16.27
2024-02-24T05:08:24.688Z,16.83
2024-02-24T05:10:53.059Z,18.17
2024-02-24T05:13:21.645Z,18.95
2024-02-24T05:15:49.977Z,23.80
2024-02-24T05:18:19.617Z,21.70
2024-02-24T05:20:49.197Z,21.58
2024-02-24T05:23:17.820Z,19.42
2024-02-24T05:25:48.508Z,31.58
2024-02-24T05:30:48.817Z,16.23
2024-02-24T05:33:19.143Z,18.70
2024-02-24T05:35:47.802Z,21.88
2024-02-24T05:38:16.549Z,16.50
2024-02-24T05:40:44.870Z,17.58
2024-02-24T05:43:13.496Z,16.65
2024-02-24T05:45:43.099Z,17.10
2024-02-24T05:48:11.897Z,22.65
2024-02-24T05:50:40.957Z,20.02
2024-02-24T05:53:12.057Z,19.70
2024-02-24T05:55:40.613Z,19.02
2024-02-24T05:58:10.091Z,14.63
2024-02-24T06:00:38.604Z,12.48
2024-02-24T06:03:13.203Z,11.68
2024-02-24T06:05:41.909Z,12.57
2024-02-24T06:08:10.961Z,10.02
2024-02-24T06:10:40.287Z,13.20
2024-02-24T06:13:09.764Z,24.13
2024-02-24T06:16:03.129Z,24.77
2024-02-24T06:18:32.057Z,17.73
2024-02-24T06:21:00.626Z,15.55
2024-02-24T06:23:29.550Z,16.63
2024-02-24T06:25:59.440Z,20.00
2024-02-24T06:28:28.316Z,11.98
2024-02-24T06:30:56.649Z,14.70
2024-02-24T06:33:26.070Z,10.80
2024-02-24T06:35:54.504Z,9.63
2024-02-24T06:38:23.205Z,7.72
2024-02-24T06:40:51.540Z,6.72
2024-02-24T06:43:20.296Z,6.85
2024-02-24T06:45:48.891Z,5.88
2024-02-24T06:48:17.621Z,15.95
2024-02-24T06:50:46.281Z,14.38
2024-02-24T06:53:15.137Z,5.22
2024-02-24T06:55:43.591Z,4.15
2024-02-24T06:58:12.289Z,5.80
2024-02-24T07:00:40.755Z,3.35
2024-02-24T07:03:09.692Z,5.32
2024-02-24T07:05:38.175Z,14.05
2024-02-24T07:08:07.134Z,6.57
2024-02-24T07:10:35.605Z,5.68
2024-02-24T07:13:04.344Z,4.60
2024-02-24T07:15:32.872Z,4.82
2024-02-24T07:18:01.594Z,2.63
2024-02-24T07:20:30.087Z,4.93
2024-02-24T07:22:58.734Z,5.75
2024-02-24T07:25:27.106Z,3.75
2024-02-24T07:28:04.999Z,2.45
2024-02-24T07:30:33.494Z,3.40
2024-02-24T07:33:02.608Z,5.85
2024-02-24T07:35:31.451Z,7.03
2024-02-24T07:38:00.472Z,2.22
2024-02-24T07:40:29.194Z,4.38
2024-02-24T07:42:58.377Z,3.83
2024-02-24T07:45:27.006Z,3.15
2024-02-24T07:47:56.115Z,2.70
2024-02-24T07:50:24.972Z,3.13
2024-02-24T07:52:53.868Z,3.58
2024-02-24T07:55:22.141Z,4.43
2024-02-24T07:57:50.824Z,4.32
2024-02-24T08:00:20.948Z,4.88
2024-02-24T08:02:49.690Z,4.50
2024-02-24T08:05:19.895Z,4.65
2024-02-24T08:07:48.599Z,7.93
2024-02-24T08:10:17.395Z,5.00
2024-02-24T08:12:46.100Z,4.75
2024-02-24T08:15:14.482Z,2.63
2024-02-24T08:17:43.515Z,5.93
2024-02-24T08:20:12.325Z,3.17
2024-02-24T08:22:41.096Z,5.30
2024-02-24T08:25:09.635Z,3.63
2024-02-24T08:27:38.305Z,6.80
2024-02-24T08:30:07.402Z,12.35
2024-02-24T08:32:36.802Z,4.53
2024-02-24T08:35:05.639Z,7.25
2024-02-24T08:37:34.803Z,4.82
2024-02-24T08:40:03.306Z,5.55
2024-02-24T08:42:31.898Z,3.17
2024-02-24T08:45:00.394Z,4.85
2024-02-24T08:49:17.369Z,4.38
2024-02-24T08:51:46.181Z,2.60
2024-02-24T08:54:15.862Z,2.97
2024-02-24T08:56:45.311Z,3.08
2024-02-24T08:59:13.725Z,1.80
2024-02-24T09:01:55.481Z,2.35
2024-02-24T09:04:24.126Z,1.75
2024-02-24T09:07:12.705Z,1.65
2024-02-24T09:09:42.807Z,2.05
2024-02-24T09:12:15.330Z,1.27
2024-02-24T09:14:44.602Z,3.63
2024-02-24T09:20:34.129Z,1.60
2024-02-24T09:23:14.329Z,2.25
2024-02-24T09:25:47.813Z,2.80
2024-02-24T09:28:17.380Z,4.20
2024-02-24T09:30:46.220Z,19.85
2024-02-24T09:33:14.912Z,21.33
2024-02-24T09:35:44.065Z,3.58
2024-02-24T09:38:12.675Z,4.47
2024-02-24T09:40:42.131Z,3.00
2024-02-24T09:43:10.615Z,2.72
2024-02-24T09:45:43.638Z,3.65
2024-02-24T09:48:13.613Z,1.52
2024-02-24T09:50:42.955Z,2.42
2024-02-24T09:53:11.649Z,12.38
2024-02-24T09:55:40.774Z,4.55
2024-02-24T09:58:12.202Z,5.55
2024-02-24T10:01:06.930Z,2.78
2024-02-24T10:03:42.067Z,2.45
2024-02-24T10:06:14.526Z,2.70
2024-02-24T10:08:43.211Z,3.85
2024-02-24T10:11:14.934Z,2.50
2024-02-24T10:13:45.351Z,3.38
2024-02-24T10:16:14.825Z,3.58
2024-02-24T10:18:43.567Z,4.25
2024-02-24T10:21:12.365Z,4.07
2024-02-24T10:23:48.077Z,4.25
2024-02-24T10:27:20.780Z,2.97
2024-02-24T10:31:17.455Z,2.30
2024-02-24T10:33:52.232Z,3.13
2024-02-24T10:36:23.043Z,2.67
2024-02-24T10:38:55.915Z,5.55
2024-02-24T10:41:26.998Z,3.45
2024-02-24T10:44:10.154Z,4.40
2024-02-24T10:46:49.124Z,4.65
2024-02-24T10:49:18.137Z,5.47
2024-02-24T10:51:51.015Z,5.90
2024-02-24T10:54:28.309Z,2.63
2024-02-24T10:57:00.313Z,3.85
2024-02-24T10:59:33.802Z,3.45
2024-02-24T11:02:04.766Z,5.25
2024-02-24T11:04:41.383Z,3.10
2024-02-24T11:07:25.029Z,3.65
2024-02-24T11:09:55.437Z,3.38
2024-02-24T11:12:24.342Z,2.85
2024-02-24T11:14:56.389Z,3.47
2024-02-24T11:17:57.132Z,3.65
2024-02-24T11:20:43.716Z,22.95
2024-02-24T11:23:34.507Z,7.50
2024-02-24T11:26:13.817Z,3.35
2024-02-24T11:29:03.688Z,2.72
2024-02-24T11:31:42.515Z,4.70
2024-02-24T11:34:12.397Z,3.47
2024-02-24T11:36:42.383Z,6.18
2024-02-24T11:39:13.631Z,4.20
2024-02-24T11:41:43.063Z,2.95
2024-02-24T11:44:13.696Z,3.13
2024-02-24T11:46:46.475Z,3.88
2024-02-24T11:49:18.060Z,2.97
2024-02-24T11:51:47.105Z,3.33
2024-02-24T11:54:18.317Z,4.35
2024-02-24T11:56:48.145Z,3.03
2024-02-24T11:59:16.973Z,2.42
2024-02-24T12:01:45.924Z,2.60
2024-02-24T12:04:22.615Z,2.60
2024-02-24T12:06:51.610Z,3.88
2024-02-24T12:09:30.548Z,1.65
2024-02-24T12:12:00.667Z,2.53
2024-02-24T12:14:30.735Z,2.55
2024-02-24T12:16:59.636Z,4.50
2024-02-24T12:19:29.666Z,2.35
2024-02-24T12:21:58.422Z,3.05
2024-02-24T12:24:30.942Z,3.17
2024-02-24T12:27:01.946Z,3.50
2024-02-24T12:29:31.370Z,4.88
2024-02-24T12:32:00.154Z,6.05
2024-02-24T12:34:29.133Z,4.95
2024-02-24T12:36:57.896Z,6.53
2024-02-24T12:39:51.413Z,4.43
2024-02-24T12:42:20.179Z,5.30
2024-02-24T12:44:48.797Z,4.28
2024-02-24T12:47:17.931Z,5.80
2024-02-24T12:49:49.560Z,10.30
2024-02-24T12:52:18.244Z,4.82
2024-02-24T12:54:48.378Z,5.18
2024-02-24T12:57:17.140Z,5.50
2024-02-24T12:59:45.663Z,5.47
2024-02-24T13:02:14.330Z,5.25
2024-02-24T13:04:42.706Z,3.25
2024-02-24T13:07:11.289Z,2.83
2024-02-24T13:09:39.721Z,3.03
2024-02-24T13:12:08.658Z,4.03
2024-02-24T13:14:37.311Z,4.18
2024-02-24T13:17:09.822Z,3.00
2024-02-24T13:19:38.444Z,4.57
2024-02-24T13:22:07.334Z,3.63
2024-02-24T13:24:35.933Z,3.60
2024-02-24T13:27:04.690Z,3.63
2024-02-24T13:29:33.109Z,2.92
2024-02-24T13:32:02.404Z,3.15
2024-02-24T13:34:31.323Z,2.88
2024-02-24T13:37:00.357Z,5.95
2024-02-24T13:39:28.875Z,3.45
2024-02-24T13:41:57.962Z,3.28
2024-02-24T13:44:26.419Z,3.28
2024-02-24T13:46:54.972Z,3.03
2024-02-24T13:49:26.053Z,3.72
2024-02-24T13:51:57.596Z,22.52
2024-02-24T13:54:30.166Z,14.70
2024-02-24T13:56:59.717Z,2.55
2024-02-24T13:59:54.666Z,7.88
2024-02-24T14:02:50.051Z,2.97
2024-02-24T14:05:19.136Z,2.67
2024-02-24T14:07:47.672Z,3.95
2024-02-24T14:10:16.578Z,2.33
2024-02-24T14:12:44.875Z,2.83
2024-02-24T14:15:14.160Z,2.70
2024-02-24T14:17:42.485Z,7.95
2024-02-24T14:20:20.017Z,4.32
2024-02-24T14:22:55.833Z,3.65
2024-02-24T14:29:01.405Z,4.32
2024-02-24T14:31:32.472Z,4.80
2024-02-24T14:34:01.665Z,3.40
2024-02-24T14:36:31.038Z,3.17
2024-02-24T14:39:25.027Z,4.57
2024-02-24T14:41:57.249Z,2.85
2024-02-24T14:44:38.678Z,4.07
2024-02-24T14:47:11.184Z,4.32
2024-02-24T14:49:48.525Z,4.03
2024-02-24T14:52:27.666Z,3.90
2024-02-24T14:54:56.140Z,4.95
2024-02-24T14:57:27.968Z,3.65
2024-02-24T14:59:58.386Z,4.25
2024-02-24T15:02:39.053Z,4.38
2024-02-24T15:05:14.728Z,5.78
2024-02-24T15:07:43.839Z,4.45
2024-02-24T15:10:12.505Z,5.85
2024-02-24T15:12:41.116Z,6.50
2024-02-24T15:15:09.987Z,10.98
2024-02-24T15:17:42.056Z,4.68
2024-02-24T15:20:11.584Z,9.57
2024-02-24T15:22:40.400Z,3.60
2024-02-24T15:25:10.394Z,4.00
2024-02-24T15:27:39.180Z,4.82
2024-02-24T15:30:09.015Z,6.53
2024-02-24T15:32:38.246Z,3.85
2024-02-24T15:35:07.721Z,4.35
2024-02-24T15:37:36.574Z,3.40
2024-02-24T15:40:11.663Z,3.28
2024-02-24T15:42:40.303Z,4.28
2024-02-24T15:45:09.060Z,6.03
2024-02-24T15:47:38.987Z,9.52
2024-02-24T15:50:07.996Z,2.97
2024-02-24T15:52:36.619Z,5.80
2024-02-24T15:55:05.334Z,5.53
2024-02-24T15:57:34.123Z,4.10
2024-02-24T16:00:02.484Z,4.85
2024-02-24T16:02:55.088Z,4.93
2024-02-24T16:05:23.785Z,4.63
2024-02-24T16:07:52.491Z,4.28
2024-02-24T16:10:21.311Z,7.38
2024-02-24T16:12:50.288Z,11.40
2024-02-24T16:15:18.772Z,8.38
2024-02-24T16:17:47.646Z,17.90
2024-02-24T16:20:17.628Z,20.75
2024-02-24T16:22:46.688Z,15.68
2024-02-24T16:25:17.165Z,14.23
2024-02-24T16:27:46.315Z,17.20
2024-02-24T16:30:14.990Z,20.50
2024-02-24T16:32:43.756Z,16.75
2024-02-24T16:35:12.928Z,19.10
2024-02-24T16:37:41.588Z,15.63
2024-02-24T16:40:11.064Z,17.67
2024-02-24T16:42:39.786Z,12.57
2024-02-24T16:45:09.962Z,16.48
2024-02-24T16:47:39.378Z,20.02
2024-02-24T16:50:09.873Z,24.73
2024-02-24T16:52:38.733Z,27.17
2024-02-24T16:55:11.067Z,28.42
2024-02-24T16:57:40.501Z,21.58
2024-02-24T17:00:10.838Z,40.35
2024-02-24T17:02:39.606Z,44.83
2024-02-24T17:05:13.478Z,41.90
2024-02-24T17:07:42.800Z,54.28
2024-02-24T17:10:13.710Z,47.75
2024-02-24T17:12:42.547Z,39.17
2024-02-24T17:15:11.849Z,65.43
2024-02-24T17:17:41.027Z,69.63
2024-02-24T17:20:10.441Z,73.75
2024-02-24T17:22:40.772Z,86.65
2024-02-24T17:25:09.623Z,51.28
2024-02-24T17:27:38.763Z,36.47
2024-02-24T17:30:07.919Z,31.27
2024-02-24T17:32:38.084Z,36.88
2024-02-24T17:35:10.907Z,35.97
2024-02-24T17:37:39.708Z,40.85
2024-02-24T17:40:08.945Z,45.50
2024-02-24T17:42:37.563Z,48.30
2024-02-24T17:45:06.478Z,33.08
2024-02-24T17:47:35.199Z,27.70
2024-02-24T17:50:04.259Z,29.58
2024-02-24T17:52:33.013Z,25.30
2024-02-24T17:55:01.779Z,26.20
2024-02-24T17:57:30.666Z,30.60
2024-02-24T17:59:59.368Z,30.67
2024-02-24T18:02:28.481Z,32.20
2024-02-24T18:04:56.796Z,33.17
2024-02-24T18:07:26.704Z,34.88
2024-02-24T18:09:55.141Z,32.38
2024-02-24T18:12:23.955Z,30.27
2024-02-24T18:14:54.060Z,21.42
2024-02-24T18:17:23.010Z,22.27
2024-02-24T18:19:51.364Z,38.90
2024-02-24T18:22:19.974Z,29.60
2024-02-24T18:24:49.382Z,24.75
2024-02-24T18:27:18.056Z,29.30
2024-02-24T18:29:46.487Z,32.17
2024-02-24T18:32:15.161Z,27.20
2024-02-24T18:34:43.622Z,22.98
2024-02-24T18:37:12.440Z,27.85
2024-02-24T18:39:42.405Z,23.13
2024-02-24T18:42:11.580Z,21.90
2024-02-24T18:44:40.052Z,27.55
2024-02-24T18:47:08.878Z,28.85
2024-02-24T18:49:37.564Z,18.33
2024-02-24T18:52:09.078Z,17.35
2024-02-24T18:54:37.432Z,17.40
2024-02-24T18:57:06.240Z,20.38
2024-02-24T18:59:34.737Z,21.00
2024-02-24T19:02:03.953Z,17.30
2024-02-24T19:04:32.269Z,21.10
2024-02-24T19:07:01.164Z,22.35
2024-02-24T19:09:29.686Z,19.25
2024-02-24T19:11:58.492Z,23.77
2024-02-24T19:14:26.800Z,25.58
2024-02-24T19:16:55.494Z,21.75
2024-02-24T19:19:24.037Z,21.70
2024-02-24T19:21:52.633Z,18.88
2024-02-24T19:24:20.943Z,20.88
2024-02-24T19:26:49.951Z,28.30
2024-02-24T19:29:18.478Z,27.45
2024-02-24T19:31:47.189Z,21.88
2024-02-24T19:34:17.659Z,20.38
2024-02-24T19:36:47.069Z,24.45
2024-02-24T19:39:19.027Z,25.63
2024-02-24T19:41:49.092Z,22.42
2024-02-24T19:44:17.697Z,24.27
2024-02-24T19:46:46.507Z,24.65
2024-02-24T19:49:16.706Z,20.23
2024-02-24T19:51:45.920Z,16.38
2024-02-24T19:54:39.974Z,20.08
2024-02-24T19:57:08.783Z,21.42
2024-02-24T19:59:40.209Z,17.75
2024-02-24T20:04:37.423Z,23.30
2024-02-24T20:07:06.266Z,22.25
2024-02-24T20:09:39.166Z,25.60
2024-02-24T20:12:13.802Z,20.25
2024-02-24T20:14:44.291Z,27.65
2024-02-24T20:17:15.023Z,23.27
2024-02-24T20:19:46.665Z,35.45
2024-02-24T20:22:17.294Z,32.67
2024-02-24T20:24:45.621Z,34.22
2024-02-24T20:27:15.346Z,26.80
2024-02-24T20:29:43.599Z,23.83
2024-02-24T20:32:12.228Z,29.90
2024-02-24T20:34:40.738Z,26.65
2024-02-24T20:37:09.250Z,20.38
2024-02-24T20:39:37.442Z,20.88
2024-02-24T20:42:07.681Z,23.55
2024-02-24T20:44:36.068Z,25.55
2024-02-24T20:47:04.987Z,21.83
2024-02-24T20:49:33.273Z,23.65
2024-02-24T20:52:01.848Z,22.23
2024-02-24T20:54:36.102Z,23.42
2024-02-24T20:57:05.164Z,21.00
2024-02-24T20:59:33.567Z,21.83
2024-02-24T21:02:02.933Z,25.58
2024-02-24T21:04:31.202Z,22.85
2024-02-24T21:06:59.886Z,22.10
2024-02-24T21:09:30.294Z,21.83
2024-02-24T21:11:59.151Z,24.38
2024-02-24T21:14:27.489Z,23.05
2024-02-24T21:16:56.155Z,24.83
2024-02-24T21:19:24.444Z,21.80
2024-02-24T21:21:55.878Z,25.33
2024-02-24T21:24:24.209Z,24.30
2024-02-24T21:26:52.859Z,25.85
2024-02-24T21:29:21.256Z,25.15
2024-02-24T21:31:52.766Z,24.98
2024-02-24T21:34:23.625Z,23.10
2024-02-24T21:36:52.294Z,23.15
2024-02-24T21:39:20.556Z,21.35
2024-02-24T21:41:49.141Z,25.63
2024-02-24T21:44:17.625Z,25.30
2024-02-24T21:46:46.185Z,28.85
2024-02-24T21:49:15.315Z,26.85
2024-02-24T21:51:43.850Z,27.85
2024-02-24T21:54:15.932Z,27.45
2024-02-24T21:56:54.287Z,24.58
2024-02-24T21:59:22.577Z,24.90
2024-02-24T22:01:51.517Z,24.70
2024-02-24T22:04:28.760Z,18.90
2024-02-24T22:06:57.475Z,21.08
2024-02-24T22:09:26.050Z,21.30
2024-02-24T22:11:54.673Z,24.15
2024-02-24T22:14:23.274Z,21.00
2024-02-24T22:16:51.983Z,21.15
2024-02-24T22:19:20.512Z,22.13
2024-02-24T22:21:50.464Z,20.38
2024-02-24T22:24:18.933Z,25.52
2024-02-24T22:26:48.725Z,22.23
2024-02-24T22:29:18.501Z,23.13
2024-02-24T22:31:48.237Z,23.17
2024-02-24T22:34:16.962Z,26.55
2024-02-24T22:36:45.844Z,29.00
2024-02-24T22:39:14.293Z,31.48
2024-02-24T22:41:43.267Z,25.20
2024-02-24T22:44:11.745Z,28.77
2024-02-24T22:46:40.622Z,23.30
2024-02-24T22:49:09.239Z,26.75
2024-02-24T22:51:37.954Z,29.30
2024-02-24T22:54:06.495Z,26.33
2024-02-24T22:56:36.292Z,25.67
2024-02-24T22:59:04.864Z,24.98
2024-02-24T23:01:33.782Z,31.35
2024-02-24T23:04:04.158Z,28.98
2024-02-24T23:06:33.978Z,34.78
2024-02-24T23:09:02.792Z,37.22
2024-02-24T23:11:36.167Z,81.50
2024-02-24T23:14:09.684Z,70.57
2024-02-24T23:16:40.126Z,73.50
2024-02-24T23:19:08.888Z,77.53
2024-02-24T23:21:38.047Z,57.40
2024-02-24T23:24:06.997Z,47.72
2024-02-24T23:26:35.907Z,43.08
2024-02-24T23:29:30.272Z,39.55
2024-02-24T23:31:59.097Z,39.45
2024-02-24T23:34:27.525Z,36.38
2024-02-24T23:36:56.177Z,35.03
2024-02-24T23:39:24.620Z,33.47
2024-02-24T23:41:54.524Z,33.83
2024-02-24T23:44:23.128Z,37.58
2024-02-24T23:46:51.760Z,37.03
2024-02-24T23:49:20.142Z,31.95
2024-02-24T23:51:48.924Z,33.17
2024-02-24T23:54:20.348Z,32.33
2024-02-24T23:56:55.410Z,30.70
2024-02-24T23:59:23.859Z,30.65
